createdAt,value
2018-05-15T00:02:20.996Z,12.90
2018-05-15T00:04:49.129Z,12.30
2018-05-15T00:07:17.321Z,13.10
2018-05-15T00:09:45.462Z,12.03
2018-05-15T00:12:13.611Z,12.30
2018-05-15T00:14:41.769Z,14.00
2018-05-15T00:17:09.901Z,13.20
2018-05-15T00:19:38.051Z,11.70
2018-05-15T00:22:06.940Z,12.93
2018-05-15T00:24:35.855Z,12.57
2018-05-15T00:27:04.003Z,12.20
2018-05-15T00:29:32.905Z,12.67
2018-05-15T00:32:01.043Z,11.10
2018-05-15T00:34:29.210Z,12.13
2018-05-15T00:36:57.430Z,14.07
2018-05-15T00:39:25.567Z,13.57
2018-05-15T00:41:53.702Z,13.47
2018-05-15T00:44:21.854Z,12.47
2018-05-15T00:46:49.976Z,13.43
2018-05-15T00:49:18.131Z,13.90
2018-05-15T00:51:46.276Z,12.87
2018-05-15T00:54:14.403Z,13.87
2018-05-15T00:56:42.548Z,13.33
2018-05-15T00:59:10.683Z,13.50
2018-05-15T01:01:38.837Z,13.53
2018-05-15T01:04:07.739Z,13.03
2018-05-15T01:06:35.883Z,13.10
2018-05-15T01:09:04.019Z,14.10
2018-05-15T01:11:32.218Z,13.67
2018-05-15T01:14:00.377Z,14.00
2018-05-15T01:16:28.567Z,12.60
2018-05-15T01:18:56.681Z,14.33
2018-05-15T01:21:24.854Z,14.87
2018-05-15T01:23:52.998Z,14.07
2018-05-15T01:26:21.936Z,13.60
2018-05-15T01:28:50.067Z,15.10
2018-05-15T01:31:18.973Z,15.70
2018-05-15T01:33:47.157Z,13.43
2018-05-15T01:36:15.305Z,14.10
2018-05-15T01:38:44.235Z,16.87
2018-05-15T01:41:12.382Z,15.80
2018-05-15T01:43:40.516Z,14.50
2018-05-15T01:46:08.677Z,15.30
2018-05-15T01:48:36.816Z,15.00
2018-05-15T01:51:05.692Z,14.47
2018-05-15T01:53:33.819Z,15.57
2018-05-15T01:56:01.964Z,15.53
2018-05-15T01:58:30.114Z,15.23
2018-05-15T02:00:58.271Z,16.27
2018-05-15T02:03:26.406Z,14.53
2018-05-15T02:05:55.351Z,15.33
2018-05-15T02:08:23.473Z,16.33
2018-05-15T02:10:51.607Z,15.93
2018-05-15T02:13:19.759Z,16.30
2018-05-15T02:15:47.895Z,18.70
2018-05-15T02:18:16.071Z,15.70
2018-05-15T02:20:44.229Z,16.80
2018-05-15T02:23:12.373Z,17.77
2018-05-15T02:25:40.515Z,18.60
2018-05-15T02:28:09.429Z,17.73
2018-05-15T02:30:37.621Z,17.33
2018-05-15T02:33:05.755Z,16.80
2018-05-15T02:35:33.884Z,18.27
2018-05-15T02:38:02.017Z,17.80
2018-05-15T02:40:30.168Z,17.77
2018-05-15T02:42:59.071Z,17.90
2018-05-15T02:45:27.222Z,18.47
2018-05-15T02:47:56.137Z,19.03
2018-05-15T02:50:24.273Z,20.53
2018-05-15T02:52:52.417Z,17.60
2018-05-15T02:55:20.571Z,19.10
2018-05-15T02:57:48.720Z,18.93
2018-05-15T03:00:16.964Z,18.40
2018-05-15T03:02:45.135Z,19.23
2018-05-15T03:05:13.269Z,19.40
2018-05-15T03:07:41.400Z,18.70
2018-05-15T03:10:10.318Z,20.70
2018-05-15T03:12:38.542Z,22.03
2018-05-15T03:15:06.635Z,20.50
2018-05-15T03:17:34.785Z,20.53
2018-05-15T03:20:03.680Z,20.70
2018-05-15T03:22:32.613Z,20.63
2018-05-15T03:25:00.762Z,20.80
2018-05-15T03:27:28.914Z,22.60
2018-05-15T03:29:57.823Z,20.90
2018-05-15T03:32:26.743Z,20.77
2018-05-15T03:34:54.876Z,21.87
2018-05-15T03:37:23.800Z,21.90
2018-05-15T03:39:51.945Z,21.30
2018-05-15T03:42:20.110Z,19.73
2018-05-15T03:44:49.013Z,22.17
2018-05-15T03:47:17.908Z,22.47
2018-05-15T03:49:46.060Z,22.87
2018-05-15T03:52:15.075Z,22.17
2018-05-15T03:54:43.239Z,22.97
2018-05-15T03:57:12.165Z,24.17
2018-05-15T03:59:40.296Z,23.90
2018-05-15T04:02:27.103Z,23.90
2018-05-15T04:05:13.989Z,24.23
2018-05-15T04:08:00.051Z,23.20
2018-05-15T04:10:28.187Z,25.23
2018-05-15T04:12:57.082Z,24.23
2018-05-15T04:15:25.231Z,24.97
2018-05-15T04:17:53.371Z,22.97
2018-05-15T04:20:21.516Z,26.47
2018-05-15T04:22:49.653Z,25.33
2018-05-15T04:25:17.808Z,25.37
2018-05-15T04:27:45.935Z,25.77
2018-05-15T04:30:14.086Z,26.33
2018-05-15T04:32:42.232Z,25.20
2018-05-15T04:35:10.425Z,26.53
2018-05-15T04:37:38.538Z,25.60
2018-05-15T04:40:06.686Z,26.10
2018-05-15T04:42:34.875Z,25.60
2018-05-15T04:45:03.907Z,25.10
2018-05-15T04:47:32.045Z,24.07
2018-05-15T04:50:00.194Z,26.30
2018-05-15T04:52:28.334Z,24.33
2018-05-15T04:54:56.482Z,25.07
2018-05-15T04:57:25.391Z,25.97
2018-05-15T04:59:53.549Z,25.43
2018-05-15T05:02:21.673Z,25.07
2018-05-15T05:04:49.835Z,24.60
2018-05-15T05:07:18.725Z,23.83
2018-05-15T05:09:47.638Z,23.60
2018-05-15T05:12:15.777Z,24.77
2018-05-15T05:14:44.689Z,24.17
2018-05-15T05:17:12.864Z,23.50
2018-05-15T05:19:41.017Z,24.40
2018-05-15T05:22:09.936Z,23.00
2018-05-15T05:24:38.092Z,22.97
2018-05-15T05:27:06.277Z,22.77
2018-05-15T05:29:35.150Z,23.97
2018-05-15T05:32:04.054Z,23.53
2018-05-15T05:34:32.196Z,22.73
2018-05-15T05:37:00.353Z,23.20
2018-05-15T05:39:28.566Z,20.93
2018-05-15T05:41:56.763Z,40.70
2018-05-15T05:44:24.906Z,23.20
2018-05-15T05:46:53.041Z,20.80
2018-05-15T05:49:21.192Z,19.20
2018-05-15T05:51:49.349Z,21.43
2018-05-15T05:54:17.502Z,19.40
2018-05-15T05:56:45.661Z,21.97
2018-05-15T05:59:15.158Z,20.13
2018-05-15T06:01:44.055Z,20.80
2018-05-15T06:04:12.953Z,20.60
2018-05-15T06:06:41.853Z,19.77
2018-05-15T06:09:09.988Z,21.00
2018-05-15T06:11:38.248Z,20.53
2018-05-15T06:14:06.379Z,18.03
2018-05-15T06:16:34.628Z,17.87
2018-05-15T06:19:03.509Z,17.30
2018-05-15T06:21:32.418Z,18.33
2018-05-15T06:24:00.577Z,18.60
2018-05-15T06:26:29.473Z,16.60
2018-05-15T06:28:58.386Z,17.63
2018-05-15T06:31:26.532Z,16.47
2018-05-15T06:33:57.029Z,17.43
2018-05-15T06:36:25.184Z,18.90
2018-05-15T06:38:53.359Z,18.43
2018-05-15T06:41:21.520Z,17.17
2018-05-15T06:43:49.716Z,17.20
2018-05-15T06:46:17.865Z,17.97
2018-05-15T06:48:45.995Z,18.33
2018-05-15T06:51:14.915Z,18.67
2018-05-15T06:53:43.047Z,18.40
2018-05-15T06:56:11.204Z,16.73
2018-05-15T06:58:39.358Z,21.57
2018-05-15T07:01:07.521Z,16.90
2018-05-15T07:03:35.655Z,16.93
2018-05-15T07:06:04.573Z,15.40
2018-05-15T07:08:32.803Z,15.10
2018-05-15T07:11:00.982Z,12.27
2018-05-15T07:13:29.940Z,12.33
2018-05-15T07:15:58.503Z,11.00
2018-05-15T07:18:26.640Z,11.40
2018-05-15T07:20:54.781Z,12.80
2018-05-15T07:23:22.910Z,11.27
2018-05-15T07:25:51.147Z,11.97
2018-05-15T07:28:20.046Z,10.43
2018-05-15T07:30:48.992Z,9.63
2018-05-15T07:33:17.280Z,9.23
2018-05-15T07:50:03.350Z,8.67
2018-05-15T07:55:32.273Z,9.00
2018-05-15T07:58:00.438Z,8.20
2018-05-15T08:00:28.598Z,8.13
2018-05-15T08:02:56.765Z,11.10
2018-05-15T08:05:24.931Z,7.83
2018-05-15T08:07:53.076Z,8.77
2018-05-15T08:10:21.223Z,7.40
2018-05-15T08:12:49.383Z,7.90
2018-05-15T08:15:17.518Z,7.97
2018-05-15T08:20:37.699Z,6.87
2018-05-15T08:26:37.193Z,6.60
2018-05-15T08:29:19.168Z,6.63
2018-05-15T08:32:06.984Z,7.00
2018-05-15T08:34:49.751Z,6.37
2018-05-15T08:37:38.075Z,7.07
2018-05-15T08:40:19.225Z,6.30
2018-05-15T08:46:08.651Z,4.80
2018-05-15T08:48:42.625Z,5.77
2018-05-15T08:51:11.746Z,5.83
2018-05-15T08:53:45.172Z,6.30
2018-05-15T08:56:14.087Z,6.00
2018-05-15T08:58:42.247Z,5.50
2018-05-15T09:01:10.391Z,5.07
2018-05-15T09:03:39.356Z,4.60
2018-05-15T09:06:07.496Z,5.57
2018-05-15T09:08:35.659Z,4.80
2018-05-15T09:11:03.793Z,4.80
2018-05-15T09:13:32.006Z,4.83
2018-05-15T09:16:00.179Z,4.90
2018-05-15T09:18:28.413Z,5.20
2018-05-15T09:20:57.323Z,4.63
2018-05-15T09:23:26.217Z,5.23
2018-05-15T09:25:55.131Z,4.83
2018-05-15T09:28:45.941Z,4.87
2018-05-15T09:31:33.078Z,4.50
2018-05-15T09:34:30.860Z,5.77
2018-05-15T09:37:12.494Z,4.90
2018-05-15T09:39:40.624Z,4.57
2018-05-15T09:42:20.034Z,4.17
2018-05-15T09:45:00.774Z,4.60
2018-05-15T09:50:50.231Z,4.70
2018-05-15T09:56:19.044Z,6.13
2018-05-15T09:58:47.243Z,4.90
2018-05-15T10:01:15.402Z,5.57
2018-05-15T10:03:43.559Z,5.80
2018-05-15T10:06:12.954Z,5.50
2018-05-15T10:08:51.683Z,5.17
2018-05-15T10:14:45.110Z,4.70
2018-05-15T10:17:29.613Z,5.20
2018-05-15T10:20:10.180Z,4.03
2018-05-15T10:25:33.936Z,4.77
2018-05-15T10:28:02.147Z,5.00
2018-05-15T10:30:31.098Z,4.00
2018-05-15T10:33:05.303Z,3.77
2018-05-15T10:35:42.270Z,5.50
2018-05-15T10:38:16.769Z,5.20
2018-05-15T10:43:45.324Z,5.00
2018-05-15T10:46:13.471Z,5.07
2018-05-15T10:48:41.604Z,4.93
2018-05-15T10:51:09.739Z,4.47
2018-05-15T10:53:37.916Z,4.80
2018-05-15T10:59:14.605Z,5.00
2018-05-15T11:01:50.263Z,4.53
2018-05-15T11:04:27.441Z,5.33
2018-05-15T11:06:55.747Z,4.50
2018-05-15T11:09:24.688Z,4.90
2018-05-15T11:11:53.570Z,5.17
2018-05-15T11:14:22.425Z,5.20
2018-05-15T11:16:51.345Z,4.83
2018-05-15T11:19:37.389Z,4.57
2018-05-15T11:22:23.388Z,4.40
2018-05-15T11:24:53.108Z,4.70
2018-05-15T11:27:22.161Z,4.77
2018-05-15T11:29:50.409Z,5.43
2018-05-15T11:32:18.617Z,4.83
2018-05-15T11:34:46.784Z,3.77
2018-05-15T11:37:14.992Z,4.90
2018-05-15T11:39:43.919Z,4.67
2018-05-15T11:42:12.063Z,4.07
2018-05-15T11:44:46.370Z,5.10
2018-05-15T11:47:14.606Z,4.83
2018-05-15T11:49:43.732Z,4.93
2018-05-15T11:52:12.838Z,4.33
2018-05-15T11:54:42.107Z,4.10
2018-05-15T11:57:10.953Z,4.47
2018-05-15T11:59:39.220Z,4.53
2018-05-15T12:02:08.100Z,4.43
2018-05-15T12:04:36.450Z,5.10
2018-05-15T12:07:05.390Z,4.30
2018-05-15T12:09:33.724Z,5.67
2018-05-15T12:12:02.648Z,4.13
2018-05-15T12:14:30.841Z,5.47
2018-05-15T12:24:00.532Z,4.50
2018-05-15T12:26:28.820Z,4.53
2018-05-15T12:28:57.078Z,5.30
2018-05-15T12:31:25.263Z,4.80
2018-05-15T12:33:53.418Z,4.47
2018-05-15T12:36:22.373Z,4.37
2018-05-15T12:38:50.709Z,4.60
2018-05-15T12:41:19.308Z,4.60
2018-05-15T12:44:27.461Z,4.80
2018-05-15T12:49:46.105Z,4.50
2018-05-15T12:52:27.310Z,4.23
2018-05-15T12:58:05.552Z,4.83
2018-05-15T13:03:28.500Z,3.80
2018-05-15T13:06:02.751Z,4.90
2018-05-15T13:08:33.157Z,4.80
2018-05-15T13:11:05.321Z,4.20
2018-05-15T13:13:33.508Z,4.07
2018-05-15T13:16:01.672Z,4.87
2018-05-15T13:18:29.879Z,4.13
2018-05-15T13:20:57.992Z,4.17
2018-05-15T13:23:26.190Z,5.23
2018-05-15T13:32:10.052Z,3.73
2018-05-15T13:34:47.889Z,3.90
2018-05-15T13:37:22.952Z,4.47
2018-05-15T13:42:50.583Z,4.00
2018-05-15T13:45:18.716Z,4.20
2018-05-15T13:47:48.102Z,3.87
2018-05-15T13:50:16.257Z,4.23
2018-05-15T13:52:46.171Z,3.80
2018-05-15T13:55:15.203Z,3.90
2018-05-15T13:57:45.240Z,5.00
2018-05-15T14:00:32.495Z,3.77
2018-05-15T14:03:00.731Z,4.37
2018-05-15T14:05:38.749Z,3.60
2018-05-15T14:08:08.059Z,3.40
2018-05-15T14:10:36.213Z,3.57
2018-05-15T14:13:04.362Z,3.33
2018-05-15T14:15:32.505Z,3.47
2018-05-15T14:18:00.647Z,4.30
2018-05-15T14:20:28.971Z,4.20
2018-05-15T14:22:57.167Z,3.37
2018-05-15T14:25:25.319Z,3.10
2018-05-15T14:27:53.458Z,3.83
2018-05-15T14:30:21.588Z,5.47
2018-05-15T14:32:49.794Z,3.97
2018-05-15T14:35:18.050Z,4.07
2018-05-15T14:37:46.217Z,3.83
2018-05-15T14:40:14.415Z,3.77
2018-05-15T14:43:00.240Z,4.13
2018-05-15T14:45:28.407Z,4.63
2018-05-15T14:47:56.555Z,3.80
2018-05-15T14:50:24.768Z,4.30
2018-05-15T14:52:53.030Z,3.67
2018-05-15T14:55:27.996Z,4.43
2018-05-15T14:57:56.113Z,4.87
2018-05-15T15:00:25.029Z,3.63
2018-05-15T15:02:53.215Z,4.40
2018-05-15T15:05:21.375Z,4.17
2018-05-15T15:07:49.489Z,5.20
2018-05-15T15:10:20.037Z,4.40
2018-05-15T15:12:48.531Z,4.87
2018-05-15T15:15:18.428Z,4.30
2018-05-15T15:17:46.859Z,3.90
2018-05-15T15:20:15.862Z,4.23
2018-05-15T15:22:44.035Z,4.00
2018-05-15T15:25:12.275Z,3.93
2018-05-15T15:27:41.185Z,4.30
2018-05-15T15:30:09.552Z,3.67
2018-05-15T15:32:37.709Z,4.83
2018-05-15T15:35:05.921Z,4.23
2018-05-15T15:37:34.077Z,4.07
2018-05-15T15:40:02.273Z,3.90
2018-05-15T15:42:30.554Z,3.90
2018-05-15T15:44:58.632Z,4.23
2018-05-15T15:47:26.938Z,4.13
2018-05-15T15:49:55.074Z,2.80
2018-05-15T15:52:23.243Z,4.30
2018-05-15T15:54:51.782Z,3.80
2018-05-15T15:57:20.796Z,3.53
2018-05-15T15:59:49.006Z,4.30
2018-05-15T16:02:17.156Z,3.87
2018-05-15T16:04:45.367Z,4.77
2018-05-15T16:07:13.506Z,4.07
2018-05-15T16:09:41.712Z,3.80
2018-05-15T16:12:10.632Z,4.23
2018-05-15T16:14:39.552Z,4.03
2018-05-15T16:17:07.711Z,3.63
2018-05-15T16:19:35.842Z,3.97
2018-05-15T16:22:03.995Z,4.43
2018-05-15T16:24:32.162Z,4.60
2018-05-15T16:27:00.468Z,4.20
2018-05-15T16:29:28.603Z,3.63
2018-05-15T16:31:56.770Z,4.03
2018-05-15T16:34:24.922Z,4.13
2018-05-15T16:36:53.045Z,4.30
2018-05-15T16:39:21.207Z,3.63
2018-05-15T16:41:49.334Z,3.97
2018-05-15T16:44:17.478Z,3.90
2018-05-15T16:46:45.609Z,3.97
2018-05-15T16:49:13.780Z,3.67
2018-05-15T16:51:42.012Z,5.10
2018-05-15T16:54:10.917Z,4.47
2018-05-15T16:56:39.083Z,3.80
2018-05-15T16:59:07.226Z,4.70
2018-05-15T17:01:35.411Z,4.17
2018-05-15T17:04:04.361Z,4.30
2018-05-15T17:06:33.370Z,3.80
2018-05-15T17:09:01.709Z,3.80
2018-05-15T17:11:29.857Z,4.70
2018-05-15T17:13:58.749Z,4.50
2018-05-15T17:16:27.638Z,4.23
2018-05-15T17:18:56.548Z,3.97
2018-05-15T17:21:24.679Z,4.30
2018-05-15T17:23:52.876Z,4.43
2018-05-15T17:26:21.757Z,4.37
2018-05-15T17:28:49.900Z,4.97
2018-05-15T17:31:18.033Z,5.10
2018-05-15T17:33:46.187Z,4.43
2018-05-15T17:36:14.306Z,4.87
2018-05-15T17:38:42.449Z,4.83
2018-05-15T17:41:10.616Z,5.27
2018-05-15T17:43:38.805Z,4.87
2018-05-15T17:46:06.943Z,5.03
2018-05-15T17:48:35.854Z,4.73
2018-05-15T17:51:04.011Z,5.47
2018-05-15T17:53:32.157Z,4.93
2018-05-15T17:56:00.280Z,4.87
2018-05-15T17:58:28.411Z,5.27
2018-05-15T18:00:57.428Z,4.97
2018-05-15T18:03:25.529Z,4.90
2018-05-15T18:05:53.970Z,5.80
2018-05-15T18:08:22.109Z,5.47
2018-05-15T18:10:50.250Z,5.70
2018-05-15T18:13:18.412Z,6.00
2018-05-15T18:15:46.574Z,4.67
2018-05-15T18:18:14.739Z,5.20
2018-05-15T18:20:42.880Z,5.50
2018-05-15T18:23:11.842Z,4.53
2018-05-15T18:25:39.984Z,4.73
2018-05-15T18:28:08.122Z,4.90
2018-05-15T18:30:37.026Z,4.80
2018-05-15T18:33:06.029Z,4.97
2018-05-15T18:35:34.135Z,5.27
2018-05-15T18:38:02.280Z,5.10
2018-05-15T18:40:30.414Z,5.30
2018-05-15T18:42:58.591Z,5.00
2018-05-15T18:45:26.938Z,4.00
2018-05-15T18:47:55.074Z,5.43
2018-05-15T18:50:23.227Z,4.50
2018-05-15T18:52:52.174Z,5.03
2018-05-15T18:55:21.189Z,5.40
2018-05-15T18:57:49.375Z,4.43
2018-05-15T19:00:18.285Z,5.80
2018-05-15T19:02:46.423Z,4.73
2018-05-15T19:05:14.550Z,5.67
2018-05-15T19:07:42.711Z,4.83
2018-05-15T19:10:11.349Z,4.40
2018-05-15T19:12:39.530Z,4.73
2018-05-15T19:15:07.660Z,4.50
2018-05-15T19:17:35.792Z,4.60
2018-05-15T19:20:03.944Z,5.23
2018-05-15T19:22:32.111Z,4.47
2018-05-15T19:25:00.255Z,4.40
2018-05-15T19:27:28.420Z,4.57
2018-05-15T19:29:56.600Z,4.90
2018-05-15T19:32:30.874Z,4.40
2018-05-15T19:34:59.025Z,5.27
2018-05-15T19:37:27.188Z,5.50
2018-05-15T19:39:57.232Z,5.00
2018-05-15T19:42:26.144Z,5.40
2018-05-15T19:44:54.331Z,5.30
2018-05-15T19:47:22.474Z,5.43
2018-05-15T19:49:51.386Z,4.90
2018-05-15T19:52:19.510Z,4.77
2018-05-15T19:54:47.663Z,4.90
2018-05-15T19:57:15.831Z,4.97
2018-05-15T19:59:43.968Z,5.67
2018-05-15T20:02:12.126Z,4.80
2018-05-15T20:04:40.276Z,4.90
2018-05-15T20:07:08.417Z,5.20
2018-05-15T20:09:36.566Z,4.80
2018-05-15T20:12:04.877Z,4.77
2018-05-15T20:14:32.983Z,4.57
2018-05-15T20:17:01.911Z,5.07
2018-05-15T20:19:30.073Z,5.27
2018-05-15T20:21:58.195Z,5.33
2018-05-15T20:24:26.319Z,4.63
2018-05-15T20:26:54.463Z,4.80
2018-05-15T20:29:23.355Z,5.40
2018-05-15T20:31:52.260Z,4.60
2018-05-15T20:34:20.389Z,5.47
2018-05-15T20:36:48.579Z,5.37
2018-05-15T20:39:17.481Z,5.40
2018-05-15T20:41:46.430Z,5.87
2018-05-15T20:44:14.553Z,5.57
2018-05-15T20:46:42.756Z,5.07
2018-05-15T20:49:10.914Z,5.60
2018-05-15T20:51:39.762Z,4.97
2018-05-15T20:54:07.996Z,5.17
2018-05-15T20:56:36.141Z,5.20
2018-05-15T20:59:04.268Z,5.13
2018-05-15T21:01:32.401Z,5.10
2018-05-15T21:04:00.546Z,5.13
2018-05-15T21:06:28.721Z,5.13
2018-05-15T21:08:56.863Z,5.30
2018-05-15T21:11:25.007Z,4.30
2018-05-15T21:13:53.139Z,4.63
2018-05-15T21:16:21.328Z,5.00
2018-05-15T21:18:50.272Z,5.23
2018-05-15T21:21:18.431Z,5.47
2018-05-15T21:23:46.553Z,4.37
2018-05-15T21:26:14.746Z,4.70
2018-05-15T21:28:43.705Z,4.60
2018-05-15T21:31:12.606Z,5.50
2018-05-15T21:33:40.735Z,5.13
2018-05-15T21:36:08.891Z,4.53
2018-05-15T21:38:37.010Z,5.47
2018-05-15T21:41:05.906Z,4.90
2018-05-15T21:43:34.823Z,5.70
2018-05-15T21:46:03.035Z,4.63
2018-05-15T21:48:31.158Z,5.17
2018-05-15T21:50:59.312Z,5.47
2018-05-15T21:53:27.515Z,5.57
2018-05-15T21:55:55.654Z,4.63
2018-05-15T21:58:24.581Z,5.77
2018-05-15T22:00:52.727Z,6.10
2018-05-15T22:03:21.511Z,5.83
2018-05-15T22:05:49.738Z,5.73
2018-05-15T22:08:17.931Z,5.83
2018-05-15T22:10:46.073Z,4.97
2018-05-15T22:13:31.898Z,5.37
2018-05-15T22:16:18.477Z,5.00
2018-05-15T22:19:04.303Z,5.20
2018-05-15T22:21:50.800Z,6.17
2018-05-15T22:24:26.576Z,6.60
2018-05-15T22:26:56.666Z,6.37
2018-05-15T22:29:25.618Z,5.50
2018-05-15T22:31:53.781Z,6.07
2018-05-15T22:34:21.901Z,6.90
2018-05-15T22:36:50.835Z,5.80
2018-05-15T22:39:18.980Z,6.63
2018-05-15T22:41:47.925Z,6.40
2018-05-15T22:44:16.135Z,5.80
2018-05-15T22:46:45.020Z,6.70
2018-05-15T22:49:13.901Z,6.23
2018-05-15T22:51:42.027Z,5.60
2018-05-15T22:54:10.149Z,6.17
2018-05-15T22:56:38.826Z,5.73
2018-05-15T22:59:07.832Z,6.30
2018-05-15T23:01:35.962Z,7.10
2018-05-15T23:04:04.094Z,5.73
2018-05-15T23:06:32.343Z,6.10
2018-05-15T23:09:00.421Z,7.80
2018-05-15T23:11:28.554Z,6.10
2018-05-15T23:13:56.706Z,6.90
2018-05-15T23:16:24.834Z,5.43
2018-05-15T23:18:54.521Z,6.47
2018-05-15T23:21:24.665Z,7.10
2018-05-15T23:23:53.562Z,6.50
2018-05-15T23:26:22.453Z,6.93
2018-05-15T23:28:51.988Z,7.23
2018-05-15T23:31:20.232Z,7.30
2018-05-15T23:33:49.951Z,6.80
2018-05-15T23:36:21.995Z,7.17
2018-05-15T23:38:50.854Z,7.00
2018-05-15T23:41:19.877Z,6.90
2018-05-15T23:43:48.793Z,6.93
2018-05-15T23:46:16.925Z,7.57
2018-05-15T23:48:45.072Z,7.87
2018-05-15T23:51:13.200Z,6.90
2018-05-15T23:53:42.486Z,6.80
2018-05-15T23:56:12.125Z,6.87
2018-05-15T23:58:40.810Z,7.07
